createdAt,value
2019-02-08T00:01:54.058Z,100.00
2019-02-08T00:04:25.012Z,100.00
2019-02-08T00:06:56.209Z,100.00
2019-02-08T00:09:27.185Z,100.00
2019-02-08T00:11:58.065Z,100.00
2019-02-08T00:14:29.074Z,100.00
2019-02-08T00:17:00.089Z,100.00
2019-02-08T00:19:31.212Z,100.00
2019-02-08T00:22:02.297Z,100.00
2019-02-08T00:24:33.729Z,100.00
2019-02-08T00:27:05.239Z,100.00
2019-02-08T00:29:36.266Z,100.00
2019-02-08T00:32:07.297Z,100.00
2019-02-08T00:34:38.470Z,100.00
2019-02-08T00:37:09.526Z,100.00
2019-02-08T00:39:40.411Z,100.00
2019-02-08T00:42:11.459Z,100.00
2019-02-08T00:44:42.501Z,100.00
2019-02-08T00:47:13.453Z,100.00
2019-02-08T00:49:44.534Z,100.00
2019-02-08T00:52:15.985Z,100.00
2019-02-08T00:54:46.992Z,100.00
2019-02-08T00:57:17.985Z,100.00
2019-02-08T00:59:51.872Z,100.00
2019-02-08T01:02:23.085Z,100.00
2019-02-08T01:04:54.450Z,100.00
2019-02-08T01:07:25.492Z,100.00
2019-02-08T01:09:57.252Z,100.00
2019-02-08T01:12:28.200Z,100.00
2019-02-08T01:14:59.419Z,100.00
2019-02-08T01:17:30.529Z,100.00
2019-02-08T01:20:01.607Z,100.00
2019-02-08T01:22:32.727Z,100.00
2019-02-08T01:25:05.333Z,100.00
2019-02-08T01:27:36.293Z,100.00
2019-02-08T01:30:10.346Z,100.00
2019-02-08T01:32:41.453Z,100.00
2019-02-08T01:35:14.095Z,100.00
2019-02-08T01:37:45.148Z,100.00
2019-02-08T01:40:22.065Z,100.00
2019-02-08T01:42:53.090Z,100.00
2019-02-08T01:45:26.603Z,100.00
2019-02-08T01:47:57.654Z,100.00
2019-02-08T01:50:29.684Z,100.00
2019-02-08T01:53:00.861Z,100.00
2019-02-08T01:55:31.986Z,100.00
2019-02-08T01:58:03.344Z,100.00
2019-02-08T02:00:40.289Z,100.00
2019-02-08T02:03:11.607Z,100.00
2019-02-08T02:05:42.735Z,100.00
2019-02-08T02:08:13.792Z,100.00
2019-02-08T02:10:46.059Z,100.00
2019-02-08T02:13:17.008Z,100.00
2019-02-08T02:15:48.046Z,100.00
2019-02-08T02:18:19.002Z,100.00
2019-02-08T02:20:49.897Z,100.00
2019-02-08T02:23:20.985Z,100.00
2019-02-08T02:25:52.050Z,100.00
2019-02-08T02:28:23.096Z,100.00
2019-02-08T02:30:54.206Z,100.00
2019-02-08T02:33:25.309Z,100.00
2019-02-08T02:35:56.283Z,100.00
2019-02-08T02:38:27.298Z,100.00
2019-02-08T02:40:58.345Z,100.00
2019-02-08T02:43:29.543Z,100.00
2019-02-08T02:46:00.572Z,100.00
2019-02-08T02:48:31.490Z,100.00
2019-02-08T02:51:02.561Z,100.00
2019-02-08T02:53:33.568Z,100.00
2019-02-08T02:56:04.722Z,100.00
2019-02-08T02:58:35.810Z,100.00
2019-02-08T03:01:07.061Z,100.00
2019-02-08T03:03:38.147Z,100.00
2019-02-08T03:06:09.467Z,100.00
2019-02-08T03:08:40.641Z,100.00
2019-02-08T03:11:11.617Z,100.00
2019-02-08T03:13:42.701Z,100.00
2019-02-08T03:16:13.811Z,100.00
2019-02-08T03:18:44.891Z,100.00
2019-02-08T03:21:15.853Z,100.00
2019-02-08T03:23:46.878Z,100.00
2019-02-08T03:26:17.929Z,100.00
2019-02-08T03:28:48.827Z,100.00
2019-02-08T03:31:19.899Z,100.00
2019-02-08T03:33:50.880Z,100.00
2019-02-08T03:36:22.000Z,100.00
2019-02-08T03:38:53.049Z,100.00
2019-02-08T03:41:23.980Z,100.00
2019-02-08T03:43:55.020Z,100.00
2019-02-08T03:46:26.109Z,100.00
2019-02-08T03:48:57.143Z,100.00
2019-02-08T03:51:28.348Z,100.00
2019-02-08T03:53:59.249Z,100.00
2019-02-08T03:56:30.323Z,100.00
2019-02-08T03:59:01.315Z,100.00
2019-02-08T04:01:32.453Z,100.00
2019-02-08T04:04:14.774Z,100.00
2019-02-08T04:06:45.803Z,100.00
2019-02-08T04:09:16.782Z,100.00
2019-02-08T04:11:47.842Z,100.00
2019-02-08T04:14:18.960Z,100.00
2019-02-08T04:16:50.025Z,100.00
2019-02-08T04:19:21.065Z,100.00
2019-02-08T04:21:52.121Z,100.00
2019-02-08T04:24:29.714Z,100.00
2019-02-08T04:26:55.772Z,100.00
2019-02-08T04:29:27.006Z,100.00
2019-02-08T04:31:57.997Z,100.00
2019-02-08T04:34:29.004Z,100.00
2019-02-08T04:36:59.989Z,100.00
2019-02-08T04:39:31.131Z,100.00
2019-02-08T04:42:02.056Z,100.00
2019-02-08T04:44:33.132Z,100.00
2019-02-08T04:47:04.261Z,100.00
2019-02-08T04:49:35.214Z,100.00
2019-02-08T04:52:06.222Z,100.00
2019-02-08T04:54:38.598Z,100.00
2019-02-08T04:57:09.757Z,100.00
2019-02-08T04:59:40.897Z,100.00
2019-02-08T05:02:11.915Z,100.00
2019-02-08T05:04:43.001Z,100.00
2019-02-08T05:07:14.078Z,100.00
2019-02-08T05:09:45.126Z,100.00
2019-02-08T05:12:16.094Z,100.00
2019-02-08T05:14:47.086Z,100.00
2019-02-08T05:17:18.386Z,100.00
2019-02-08T05:19:49.759Z,100.00
2019-02-08T05:22:20.714Z,100.00
2019-02-08T05:24:51.708Z,100.00
2019-02-08T05:27:22.703Z,100.00
2019-02-08T05:29:53.684Z,100.00
2019-02-08T05:32:24.786Z,100.00
2019-02-08T05:34:55.836Z,100.00
2019-02-08T05:37:27.150Z,100.00
2019-02-08T05:39:58.114Z,100.00
2019-02-08T05:42:31.008Z,100.00
2019-02-08T05:45:02.042Z,100.00
2019-02-08T05:47:33.012Z,100.00
2019-02-08T05:50:05.506Z,100.00
2019-02-08T05:52:36.625Z,100.00
2019-02-08T05:55:10.770Z,100.00
2019-02-08T05:57:41.795Z,100.00
2019-02-08T06:00:23.219Z,100.00
2019-02-08T06:02:54.382Z,100.00
2019-02-08T06:05:25.964Z,100.00
2019-02-08T06:07:56.976Z,100.00
2019-02-08T06:10:28.551Z,100.00
2019-02-08T06:12:59.720Z,100.00
2019-02-08T06:15:30.875Z,100.00
2019-02-08T06:18:01.843Z,100.00
2019-02-08T06:20:32.940Z,100.00
2019-02-08T06:23:04.431Z,100.00
2019-02-08T06:25:35.583Z,100.00
2019-02-08T06:28:07.223Z,100.00
2019-02-08T06:30:38.703Z,100.00
2019-02-08T06:33:09.981Z,100.00
2019-02-08T06:35:41.042Z,100.00
2019-02-08T06:38:12.178Z,100.00
2019-02-08T06:40:45.468Z,100.00
2019-02-08T06:43:16.594Z,100.00
2019-02-08T06:45:47.521Z,100.00
2019-02-08T06:48:18.594Z,100.00
2019-02-08T06:50:49.490Z,100.00
2019-02-08T06:53:20.531Z,100.00
2019-02-08T06:55:53.842Z,100.00
2019-02-08T06:58:31.599Z,100.00
2019-02-08T07:01:19.274Z,100.00
2019-02-08T07:03:52.069Z,100.00
2019-02-08T07:06:24.709Z,100.00
2019-02-08T07:08:57.314Z,100.00
2019-02-08T07:11:30.048Z,100.00
2019-02-08T07:14:08.205Z,100.00
2019-02-08T07:16:40.864Z,100.00
2019-02-08T07:19:13.567Z,100.00
2019-02-08T07:21:46.199Z,100.00
2019-02-08T07:24:21.687Z,100.00
2019-02-08T07:26:54.365Z,100.00
2019-02-08T07:29:30.276Z,100.00
2019-02-08T07:32:06.135Z,100.00
2019-02-08T07:34:39.114Z,100.00
2019-02-08T07:37:14.744Z,100.00
2019-02-08T07:39:59.266Z,100.00
2019-02-08T07:42:37.965Z,100.00
2019-02-08T07:45:11.670Z,100.00
2019-02-08T07:47:45.677Z,100.00
2019-02-08T07:50:22.778Z,100.00
2019-02-08T07:52:58.514Z,100.00
2019-02-08T07:55:34.049Z,100.00
2019-02-08T07:58:10.166Z,100.00
2019-02-08T08:00:45.567Z,100.00
2019-02-08T08:03:24.391Z,100.00
2019-02-08T08:06:03.063Z,100.00
2019-02-08T08:08:38.565Z,100.00
2019-02-08T08:11:11.207Z,100.00
2019-02-08T08:14:00.093Z,100.00
2019-02-08T08:16:32.856Z,100.00
2019-02-08T08:19:05.841Z,100.00
2019-02-08T08:21:44.355Z,100.00
2019-02-08T08:24:23.077Z,100.00
2019-02-08T08:26:59.705Z,100.00
2019-02-08T08:29:36.892Z,100.00
2019-02-08T08:32:10.818Z,100.00
2019-02-08T08:34:50.493Z,97.73
2019-02-08T08:37:39.353Z,94.29
2019-02-08T08:40:15.904Z,94.98
2019-02-08T08:42:49.845Z,90.52
2019-02-08T08:45:32.550Z,89.61
2019-02-08T08:48:23.037Z,87.36
2019-02-08T08:50:57.048Z,87.60
2019-02-08T08:53:33.697Z,85.36
2019-02-08T08:56:13.573Z,85.53
2019-02-08T08:59:16.281Z,87.49
2019-02-08T09:02:02.158Z,86.12
2019-02-08T09:04:44.981Z,85.00
2019-02-08T09:07:18.988Z,84.56
2019-02-08T09:10:13.156Z,84.41
2019-02-08T09:13:15.218Z,82.67
2019-02-08T09:16:06.005Z,82.63
2019-02-08T09:19:04.392Z,80.54
2019-02-08T09:21:47.073Z,79.90
2019-02-08T09:24:35.525Z,76.94
2019-02-08T09:27:36.570Z,74.77
2019-02-08T09:30:22.281Z,75.41
2019-02-08T09:33:13.077Z,76.00
2019-02-08T09:36:12.663Z,74.22
2019-02-08T09:38:58.704Z,75.07
2019-02-08T09:41:32.687Z,74.27
2019-02-08T09:44:26.358Z,72.94
2019-02-08T09:47:17.020Z,71.44
2019-02-08T09:50:25.302Z,70.26
2019-02-08T09:53:14.004Z,70.38
2019-02-08T09:56:26.120Z,68.46
2019-02-08T09:59:18.820Z,66.59
2019-02-08T10:02:24.966Z,68.25
2019-02-08T10:05:17.490Z,67.72
2019-02-08T10:08:05.882Z,67.30
2019-02-08T10:10:56.300Z,67.64
2019-02-08T10:13:49.864Z,64.66
2019-02-08T10:16:32.924Z,66.15
2019-02-08T10:19:26.384Z,64.58
2019-02-08T10:22:32.260Z,65.91
2019-02-08T10:25:23.982Z,65.77
2019-02-08T10:28:13.084Z,62.87
2019-02-08T10:31:15.882Z,63.17
2019-02-08T10:34:10.611Z,62.81
2019-02-08T10:37:03.488Z,64.24
2019-02-08T10:39:58.192Z,63.77
2019-02-08T10:43:05.750Z,63.92
2019-02-08T10:45:45.637Z,61.65
2019-02-08T10:48:25.242Z,60.61
2019-02-08T10:51:31.024Z,60.67
2019-02-08T10:54:25.858Z,60.44
2019-02-08T10:57:21.110Z,56.04
2019-02-08T11:00:11.879Z,59.36
2019-02-08T11:02:45.792Z,58.91
2019-02-08T11:05:51.740Z,59.64
2019-02-08T11:09:01.970Z,58.04
2019-02-08T11:11:38.516Z,58.51
2019-02-08T11:14:18.262Z,58.69
2019-02-08T11:17:15.005Z,58.06
2019-02-08T11:19:48.952Z,57.08
2019-02-08T11:22:19.970Z,57.23
2019-02-08T11:24:51.046Z,56.90
2019-02-08T11:27:22.066Z,57.64
2019-02-08T11:29:53.068Z,57.34
2019-02-08T11:32:24.114Z,56.76
2019-02-08T11:34:55.159Z,55.18
2019-02-08T11:37:26.383Z,54.98
2019-02-08T11:39:57.966Z,55.60
2019-02-08T11:42:28.911Z,55.72
2019-02-08T11:44:59.896Z,54.87
2019-02-08T11:47:30.968Z,55.50
2019-02-08T11:50:01.950Z,53.68
2019-02-08T11:52:32.815Z,51.44
2019-02-08T11:55:04.737Z,53.05
2019-02-08T11:57:35.851Z,53.28
2019-02-08T12:00:12.602Z,52.56
2019-02-08T12:02:43.495Z,51.00
2019-02-08T12:05:14.536Z,51.79
2019-02-08T12:07:45.682Z,51.47
2019-02-08T12:10:16.729Z,52.27
2019-02-08T12:12:47.603Z,52.27
2019-02-08T12:15:21.624Z,50.33
2019-02-08T12:17:52.643Z,51.76
2019-02-08T12:20:23.646Z,53.26
2019-02-08T12:22:54.568Z,53.53
2019-02-08T12:25:27.302Z,52.33
2019-02-08T12:27:58.316Z,51.10
2019-02-08T12:30:44.064Z,52.51
2019-02-08T12:33:16.815Z,52.82
2019-02-08T12:38:56.867Z,54.79
2019-02-08T12:42:02.280Z,53.82
2019-02-08T12:44:49.272Z,54.19
2019-02-08T12:47:26.906Z,54.17
2019-02-08T12:50:11.491Z,52.26
2019-02-08T12:52:48.411Z,50.62
2019-02-08T12:55:31.878Z,50.20
2019-02-08T12:58:03.803Z,51.11
2019-02-08T13:00:34.836Z,51.35
2019-02-08T13:03:05.986Z,48.29
2019-02-08T13:05:37.159Z,48.38
2019-02-08T13:08:08.192Z,47.51
2019-02-08T13:10:39.317Z,47.09
2019-02-08T13:13:10.282Z,47.73
2019-02-08T13:15:41.468Z,48.23
2019-02-08T13:18:12.517Z,48.00
2019-02-08T13:20:43.546Z,46.09
2019-02-08T13:23:14.561Z,45.39
2019-02-08T13:25:45.523Z,46.01
2019-02-08T13:28:17.267Z,46.42
2019-02-08T13:30:48.312Z,48.74
2019-02-08T13:33:19.399Z,48.88
2019-02-08T13:35:50.349Z,51.00
2019-02-08T13:38:21.238Z,50.80
2019-02-08T13:40:52.295Z,50.17
2019-02-08T13:43:23.349Z,49.94
2019-02-08T13:48:26.885Z,53.19
2019-02-08T13:50:57.954Z,52.26
2019-02-08T13:53:28.867Z,53.27
2019-02-08T13:55:59.911Z,54.56
2019-02-08T13:58:30.899Z,54.36
2019-02-08T14:01:01.861Z,55.41
2019-02-08T14:03:32.779Z,55.14
2019-02-08T14:06:03.875Z,55.54
2019-02-08T14:08:34.786Z,55.50
2019-02-08T14:11:05.753Z,56.39
2019-02-08T14:13:40.753Z,55.90
2019-02-08T14:16:09.651Z,56.96
2019-02-08T14:18:40.623Z,58.12
2019-02-08T14:21:11.571Z,59.03
2019-02-08T14:23:42.633Z,60.70
2019-02-08T14:26:13.737Z,60.29
2019-02-08T14:28:44.724Z,60.44
2019-02-08T14:31:15.812Z,60.95
2019-02-08T14:33:46.704Z,60.69
2019-02-08T14:36:17.917Z,61.24
2019-02-08T14:38:49.020Z,61.53
2019-02-08T14:41:20.400Z,61.69
2019-02-08T14:43:51.430Z,60.54
2019-02-08T14:46:22.455Z,61.34
2019-02-08T14:48:53.457Z,61.98
2019-02-08T14:51:24.447Z,61.20
2019-02-08T14:53:55.331Z,61.79
2019-02-08T14:56:26.395Z,62.05
2019-02-08T14:58:57.569Z,61.84
2019-02-08T15:01:28.633Z,63.15
2019-02-08T15:03:59.674Z,64.35
2019-02-08T15:06:30.730Z,65.37
2019-02-08T15:09:01.818Z,66.12
2019-02-08T15:11:32.862Z,67.04
2019-02-08T15:14:04.173Z,67.68
2019-02-08T15:19:28.533Z,69.35
2019-02-08T15:21:59.452Z,69.86
2019-02-08T15:24:30.549Z,70.31
2019-02-08T15:27:01.462Z,70.55
2019-02-08T15:29:32.675Z,71.18
2019-02-08T15:32:03.738Z,71.73
2019-02-08T15:34:34.692Z,72.25
2019-02-08T15:37:05.658Z,72.80
2019-02-08T15:39:36.605Z,72.84
2019-02-08T15:42:07.683Z,73.22
2019-02-08T15:44:38.727Z,73.96
2019-02-08T15:47:35.855Z,74.41
2019-02-08T15:50:08.870Z,74.97
2019-02-08T15:52:39.907Z,74.82
2019-02-08T15:55:13.833Z,75.04
2019-02-08T15:57:44.887Z,75.29
2019-02-08T16:00:19.415Z,75.52
2019-02-08T16:02:51.069Z,75.86
2019-02-08T16:05:23.279Z,76.50
2019-02-08T16:07:54.249Z,76.69
2019-02-08T16:10:25.276Z,77.57
2019-02-08T16:12:56.380Z,78.09
2019-02-08T16:15:29.026Z,79.02
2019-02-08T16:17:59.973Z,78.89
2019-02-08T16:20:31.114Z,79.53
2019-02-08T16:23:02.735Z,79.69
2019-02-08T16:25:33.757Z,80.04
2019-02-08T16:28:05.213Z,81.68
2019-02-08T16:30:39.940Z,81.52
2019-02-08T16:33:11.005Z,81.74
2019-02-08T16:35:41.992Z,82.19
2019-02-08T16:38:13.046Z,82.49
2019-02-08T16:40:44.213Z,83.79
2019-02-08T16:43:15.671Z,84.07
2019-02-08T16:45:46.820Z,84.31
2019-02-08T16:48:18.562Z,84.59
2019-02-08T16:50:49.632Z,84.87
2019-02-08T16:53:20.725Z,85.15
2019-02-08T16:55:52.171Z,85.07
2019-02-08T16:58:23.213Z,85.67
2019-02-08T17:00:54.539Z,87.07
2019-02-08T17:03:25.830Z,87.53
2019-02-08T17:05:56.786Z,87.54
2019-02-08T17:08:27.780Z,87.64
2019-02-08T17:10:58.874Z,88.32
2019-02-08T17:13:29.921Z,89.75
2019-02-08T17:16:00.847Z,90.03
2019-02-08T17:18:31.866Z,89.88
2019-02-08T17:21:02.916Z,89.85
2019-02-08T17:23:33.890Z,90.24
2019-02-08T17:26:05.240Z,90.39
2019-02-08T17:28:36.145Z,90.29
2019-02-08T17:31:07.186Z,90.71
2019-02-08T17:33:44.031Z,90.77
2019-02-08T17:36:15.041Z,91.40
2019-02-08T17:38:46.223Z,91.99
2019-02-08T17:41:17.322Z,92.20
2019-02-08T17:43:48.348Z,93.25
2019-02-08T17:46:19.486Z,93.14
2019-02-08T17:48:50.554Z,93.24
2019-02-08T17:51:21.658Z,93.76
2019-02-08T17:53:52.795Z,94.08
2019-02-08T17:56:23.734Z,94.35
2019-02-08T17:58:54.656Z,94.90
2019-02-08T18:01:25.607Z,95.12
2019-02-08T18:03:56.552Z,95.75
2019-02-08T18:06:27.599Z,95.95
2019-02-08T18:08:58.577Z,96.22
2019-02-08T18:11:29.454Z,96.26
2019-02-08T18:14:00.515Z,96.15
2019-02-08T18:16:31.536Z,96.95
2019-02-08T18:19:02.560Z,97.61
2019-02-08T18:21:33.703Z,97.37
2019-02-08T18:24:04.811Z,97.02
2019-02-08T18:26:35.833Z,97.08
2019-02-08T18:29:06.943Z,97.08
2019-02-08T18:31:38.173Z,96.70
2019-02-08T18:34:09.235Z,96.74
2019-02-08T18:36:40.370Z,96.66
2019-02-08T18:39:12.186Z,96.57
2019-02-08T18:41:44.530Z,96.67
2019-02-08T18:44:15.482Z,96.93
2019-02-08T18:46:46.477Z,96.91
2019-02-08T18:49:17.379Z,96.92
2019-02-08T18:51:48.242Z,97.07
2019-02-08T18:54:19.198Z,97.31
2019-02-08T18:56:50.238Z,97.83
2019-02-08T18:59:21.161Z,98.02
2019-02-08T19:01:52.274Z,98.32
2019-02-08T19:04:23.359Z,98.37
2019-02-08T19:06:54.296Z,98.39
2019-02-08T19:09:25.312Z,98.73
2019-02-08T19:11:56.269Z,98.90
2019-02-08T19:14:27.227Z,98.79
2019-02-08T19:16:58.470Z,98.98
2019-02-08T19:19:29.532Z,99.27
2019-02-08T19:22:00.874Z,99.47
2019-02-08T19:24:31.839Z,99.12
2019-02-08T19:27:02.925Z,98.59
2019-02-08T19:29:34.062Z,97.94
2019-02-08T19:32:05.269Z,97.51
2019-02-08T19:34:36.287Z,97.30
2019-02-08T19:37:07.687Z,97.18
2019-02-08T19:39:38.717Z,97.12
2019-02-08T19:42:09.894Z,97.00
2019-02-08T19:44:41.128Z,96.77
2019-02-08T19:47:12.233Z,96.20
2019-02-08T19:49:43.474Z,95.96
2019-02-08T19:52:14.323Z,95.82
2019-02-08T19:54:47.585Z,95.62
2019-02-08T19:57:18.508Z,95.27
2019-02-08T19:59:49.540Z,95.39
2019-02-08T20:02:20.609Z,95.36
2019-02-08T20:04:53.201Z,95.11
2019-02-08T20:07:24.410Z,95.25
2019-02-08T20:09:55.774Z,95.06
2019-02-08T20:12:26.824Z,94.97
2019-02-08T20:14:57.891Z,94.71
2019-02-08T20:17:30.010Z,94.50
2019-02-08T20:20:01.032Z,94.38
2019-02-08T20:22:32.185Z,94.18
2019-02-08T20:25:03.635Z,94.28
2019-02-08T20:27:35.024Z,94.07
2019-02-08T20:30:14.879Z,94.02
2019-02-08T20:32:45.934Z,94.17
2019-02-08T20:35:19.096Z,94.25
2019-02-08T20:37:50.402Z,94.57
2019-02-08T20:40:35.876Z,94.89
2019-02-08T20:43:06.993Z,95.08
2019-02-08T20:45:38.756Z,95.41
2019-02-08T20:48:21.046Z,95.45
2019-02-08T20:50:52.274Z,95.75
2019-02-08T20:53:23.677Z,96.06
2019-02-08T20:55:54.759Z,96.03
2019-02-08T20:58:25.847Z,95.72
2019-02-08T21:00:56.988Z,95.84
2019-02-08T21:03:28.214Z,95.29
2019-02-08T21:05:59.547Z,94.94
2019-02-08T21:08:30.671Z,94.54
2019-02-08T21:11:01.817Z,94.42
2019-02-08T21:13:32.947Z,93.89
2019-02-08T21:16:04.203Z,94.06
2019-02-08T21:18:35.138Z,93.73
2019-02-08T21:21:06.393Z,93.76
2019-02-08T21:23:37.662Z,93.62
2019-02-08T21:26:08.796Z,93.59
2019-02-08T21:28:39.845Z,93.63
2019-02-08T21:31:10.864Z,93.61
2019-02-08T21:33:41.915Z,93.45
2019-02-08T21:36:13.115Z,92.82
2019-02-08T21:38:44.003Z,92.48
2019-02-08T21:41:18.295Z,91.97
2019-02-08T21:43:49.157Z,91.58
2019-02-08T21:46:20.400Z,91.37
2019-02-08T21:48:51.396Z,91.10
2019-02-08T21:51:22.559Z,90.79
2019-02-08T21:53:53.658Z,90.20
2019-02-08T21:56:24.649Z,89.56
2019-02-08T21:58:55.654Z,88.83
2019-02-08T22:01:26.669Z,88.39
2019-02-08T22:03:57.786Z,88.35
2019-02-08T22:06:28.829Z,88.00
2019-02-08T22:08:59.973Z,87.92
2019-02-08T22:11:32.486Z,88.33
2019-02-08T22:14:03.753Z,88.17
2019-02-08T22:16:34.919Z,88.48
2019-02-08T22:19:06.135Z,88.38
2019-02-08T22:21:37.171Z,88.10
2019-02-08T22:24:08.166Z,88.18
2019-02-08T22:26:39.185Z,87.98
2019-02-08T22:29:14.132Z,87.79
2019-02-08T22:31:43.026Z,87.18
2019-02-08T22:34:14.209Z,87.40
2019-02-08T22:36:45.086Z,87.38
2019-02-08T22:39:16.129Z,86.91
2019-02-08T22:41:47.148Z,86.29
2019-02-08T22:44:18.326Z,86.29
2019-02-08T22:46:49.398Z,86.00
2019-02-08T22:49:20.386Z,85.87
2019-02-08T22:51:51.468Z,86.08
2019-02-08T22:54:22.408Z,86.42
2019-02-08T22:56:55.470Z,86.21
2019-02-08T22:59:26.468Z,85.96
2019-02-08T23:01:57.540Z,85.85
2019-02-08T23:04:28.500Z,85.86
2019-02-08T23:06:59.583Z,85.92
2019-02-08T23:09:30.690Z,86.11
2019-02-08T23:12:01.696Z,86.61
2019-02-08T23:14:32.858Z,86.88
2019-02-08T23:17:04.088Z,87.01
2019-02-08T23:19:35.075Z,86.89
2019-02-08T23:22:06.196Z,86.74
2019-02-08T23:24:37.226Z,86.82
2019-02-08T23:27:08.241Z,86.99
2019-02-08T23:29:39.184Z,86.96
2019-02-08T23:32:10.218Z,87.13
2019-02-08T23:34:41.212Z,87.34
2019-02-08T23:37:12.185Z,87.45
2019-02-08T23:39:43.271Z,87.48
2019-02-08T23:42:14.426Z,87.53
2019-02-08T23:44:45.387Z,87.59
2019-02-08T23:47:16.507Z,87.71
2019-02-08T23:49:47.395Z,87.75
2019-02-08T23:52:18.605Z,87.97
2019-02-08T23:54:49.570Z,88.07
2019-02-08T23:57:20.729Z,88.12
2019-02-08T23:59:51.946Z,88.02
